• Join FlightAware (Why Join?)
  • Login
  • US Flag 
06:44AM EDT


 

Airport Tracker/Info


-or-


 

Live Flight TrackerFlight Track Log ✈ VH-ZPN ✈ 28-May-2012 ✈ YMML / MEL - YPAD / ADL

Flight Track Log - Related Links

Times and Time Zones

All times are in EDT time to prevent confusion due to time zone crossing. See the VH-ZPN flight status page for this flight to view local times or setup timezone preferences in your user account.

Time Position Orientation Groundspeed Altitude Reporting Facility
EDT Latitude Longitude Course Direction KTS MPH feet Rate Location/Type
10:35PM -37.7143 144.8463 180° South 179 206 2,400  Level Aus ATC (RADAR)
10:35PM -37.7455 144.8461 253° West 194 223 4,000 2,400 Climbing Aus ATC (RADAR)
10:36PM -37.7592 144.7883 287° West 265 305 5,600 2,520 Climbing Aus ATC (RADAR)
10:37PM -37.7460 144.7339 291° West 271 312 7,400 3,300 Climbing Aus ATC (RADAR)
10:38PM -37.7164 144.6386 295° West 288 331 10,900 2,940 Climbing Aus ATC (RADAR)
10:39PM -37.6778 144.5351 295° West 324 373 13,300 2,640 Climbing Aus ATC (RADAR)
10:39PM -37.6508 144.4629 295° West 335 386 15,300 2,820 Climbing Aus ATC (RADAR)
10:40PM -37.6230 144.3888 295° West 345 397 17,100 2,580 Climbing Aus ATC (RADAR)
10:41PM -37.5839 144.2843 295° West 357 411 19,400 2,400 Climbing Aus ATC (RADAR)
10:42PM -37.5467 144.1859 295° West 370 426 21,400 2,160 Climbing Aus ATC (RADAR)
10:43PM -37.4853 144.0231 296° West 388 447 24,100 1,920 Climbing Aus ATC (RADAR)
10:44PM -37.4406 143.9057 296° West 401 461 25,800 1,680 Climbing Aus ATC (RADAR)
10:45PM -37.4114 143.8293 296° West 410 472 26,700 1,560 Climbing Aus ATC (RADAR)
10:45PM -37.3774 143.7404 296° West 417 480 27,800 1,440 Climbing Aus ATC (RADAR)
10:46PM -37.3201 143.5922 296° West 434 499 29,200 1,320 Climbing Aus ATC (RADAR)
10:47PM -37.2888 143.5109 296° West 440 506 30,000 1,320 Climbing Aus ATC (RADAR)
10:48PM -37.2248 143.3457 294° West 447 514 31,600 1,200 Climbing Aus ATC (RADAR)
10:49PM -37.1739 143.1997 291° West 458 527 32,700 900 Climbing Aus ATC (RADAR)
10:50PM -37.1357 143.0727 291° West 467 537 33,300 600 Climbing Aus ATC (RADAR)
10:51PM -37.1080 142.9819 291° West 477 549 33,600 660 Climbing Aus ATC (RADAR)
10:51PM -37.0671 142.8501 291° West 486 559 34,300 480 Climbing Aus ATC (RADAR)
10:52PM -37.0217 142.7029 291° West 494 568 34,500 60 Climbing Aus ATC (RADAR)
10:53PM -36.9720 142.5435 291° West 488 562 34,500  Level Aus ATC (RADAR)
10:54PM -36.9228 142.3855 292° West 486 559 34,500  Level Aus ATC (RADAR)
10:55PM -36.8851 142.2663 292° West 490 564 34,500  Level Aus ATC (RADAR)
10:56PM -36.8553 142.1738 292° West 490 564 34,500  Level Aus ATC (RADAR)
10:57PM -36.8132 142.0415 291° West 489 563 34,500  Level Aus ATC (RADAR)
10:57PM -36.7841 141.9489 292° West 491 565 34,500  Level Aus ATC (RADAR)
10:58PM -36.7173 141.7380 292° West 489 563 34,500  Level Aus ATC (RADAR)
10:59PM -36.6741 141.6072 292° West 488 562 34,500  Level Aus ATC (RADAR)
11:00PM -36.6400 141.5022 291° West 490 564 34,500  Level Aus ATC (RADAR)
11:01PM -36.6072 141.3970 293° West 488 562 34,500  Level Aus ATC (RADAR)
11:01PM -36.5764 141.3059 292° West 489 563 34,500  Level Aus ATC (RADAR)
11:02PM -36.5337 141.1747 292° West 489 563 34,500  Level Aus ATC (RADAR)
11:04PM -36.4491 140.9136 293° West 486 559 34,500  Level Aus ATC (RADAR)
11:05PM -36.3903 140.7455 306° West 489 563 34,500  Level Aus ATC (RADAR)
11:05PM -36.3381 140.6547 309° West 481 554 34,500  Level Aus ATC (RADAR)
11:06PM -36.2887 140.5793 308° West 483 556 34,500  Level Aus ATC (RADAR)
11:07PM -36.2190 140.4702 308° West 484 557 34,500  Level Aus ATC (RADAR)
11:08PM -36.1079 140.2966 308° West 481 554 34,500  Level Aus ATC (RADAR)
11:09PM -36.0389 140.1883 308° West 478 550 34,500  Level Aus ATC (RADAR)
11:10PM -35.9835 140.1014 309° West 484 557 34,500 -600 Level Aus ATC (RADAR)
11:10PM -35.9204 140.0048 309° West 482 555 33,700 -1,740 Descending Aus ATC (RADAR)
11:11PM -35.8721 139.9304 308° West 478 550 32,200 -2,580 Descending Aus ATC (RADAR)
11:12PM -35.7984 139.8133 309° West 470 541 29,900 -2,460 Descending Aus ATC (RADAR)
11:13PM -35.6878 139.6437 308° West 442 509 26,500 -2,400 Descending Aus ATC (RADAR)
11:14PM -35.6511 139.5858 309° West 433 498 25,400 -2,220 Descending Aus ATC (RADAR)
11:15PM -35.5776 139.4757 308° West 417 480 23,200 -2,220 Descending Aus ATC (RADAR)
11:16PM -35.5197 139.3856 309° West 404 465 21,400 -2,160 Descending Aus ATC (RADAR)
11:16PM -35.4795 139.3247 311° West 396 456 20,200 -2,100 Descending Aus ATC (RADAR)
11:17PM -35.4152 139.2347 339° North 384 442 18,300 -2,040 Descending Aus ATC (RADAR)
11:19PM -35.2619 139.1615 339° North 372 428 15,100 -2,100 Descending Aus ATC (RADAR)
11:20PM -35.1611 139.1145 339° North 358 412 12,800 -2,100 Descending Aus ATC (RADAR)
11:20PM -35.1082 139.0902 334° Northwest 350 403 11,600 -1,740 Descending Aus ATC (RADAR)
11:21PM -35.0588 139.0602 317° Northwest 343 395 10,800 -1,140 Descending Aus ATC (RADAR)
11:22PM -35.0224 139.0190 318° Northwest 311 358 10,300 -1,380 Descending Aus ATC (RADAR)
11:22PM -34.9815 138.9733 317° Northwest 301 346 9,100 -1,860 Descending Aus ATC (RADAR)
11:23PM -34.9454 138.9329 317° Northwest 302 348 8,000 -1,680 Descending Aus ATC (RADAR)
11:24PM -34.8861 138.8666 318° Northwest 283 326 6,500 -1,740 Descending Aus ATC (RADAR)
11:25PM -34.8243 138.7981 287° West 276 318 4,500 -1,740 Descending Aus ATC (RADAR)
11:26PM -34.8106 138.7430 241° Southwest 263 303 3,500 -960 Descending Aus ATC (RADAR)
11:26PM -34.8263 138.7079 229° Southwest 237 273 3,400 -720 Descending Aus ATC (RADAR)
11:27PM -34.8585 138.6631 230° Southwest 210 242 2,600 -1,020 Descending Aus ATC (RADAR)
11:28PM -34.8916 138.6147 230° Southwest 182 209 1,600 -900 Descending Aus ATC (RADAR)
11:29PM -34.9218 138.5708 230° Southwest 127 146 600 -720 Descending Aus ATC (RADAR)
11:30PM -34.9412 138.5424 230° Southwest 118 136 100 -600 Descending Aus ATC (RADAR)